sensor_id;sensor_type;location;lat;lon;timestamp;P1;durP1;ratioP1;P2;durP2;ratioP2
38581;SDS011;24349;53.720;10.014;2022-09-09T00:01:35;123.35;;;49.83;;
38581;SDS011;24349;53.720;10.014;2022-09-09T00:04:05;112.55;;;45.05;;
38581;SDS011;24349;53.720;10.014;2022-09-09T00:06:45;130.88;;;50.28;;
38581;SDS011;24349;53.720;10.014;2022-09-09T00:09:46;77.28;;;37.88;;
38581;SDS011;24349;53.720;10.014;2022-09-09T00:15:12;105.85;;;45.13;;
38581;SDS011;24349;53.720;10.014;2022-09-09T00:20:35;320.88;;;54.70;;
38581;SDS011;24349;53.720;10.014;2022-09-09T00:28:23;129.00;;;42.03;;
38581;SDS011;24349;53.720;10.014;2022-09-09T00:30:52;183.18;;;43.88;;
38581;SDS011;24349;53.720;10.014;2022-09-09T00:33:20;247.55;;;44.25;;
38581;SDS011;24349;53.720;10.014;2022-09-09T00:38:23;374.23;;;52.42;;
38581;SDS011;24349;53.720;10.014;2022-09-09T00:43:40;261.98;;;46.47;;
38581;SDS011;24349;53.720;10.014;2022-09-09T00:48:50;173.57;;;48.28;;
38581;SDS011;24349;53.720;10.014;2022-09-09T00:51:48;132.68;;;41.85;;
38581;SDS011;24349;53.720;10.014;2022-09-09T00:57:30;200.00;;;53.60;;
38581;SDS011;24349;53.720;10.014;2022-09-09T01:08:05;317.75;;;52.20;;
38581;SDS011;24349;53.720;10.014;2022-09-09T01:13:22;245.63;;;47.15;;
38581;SDS011;24349;53.720;10.014;2022-09-09T01:15:55;236.07;;;42.75;;
38581;SDS011;24349;53.720;10.014;2022-09-09T01:18:26;415.80;;;50.80;;
38581;SDS011;24349;53.720;10.014;2022-09-09T01:21:17;330.52;;;48.38;;
38581;SDS011;24349;53.720;10.014;2022-09-09T01:24:03;346.52;;;50.47;;
38581;SDS011;24349;53.720;10.014;2022-09-09T01:26:42;224.80;;;43.23;;
38581;SDS011;24349;53.720;10.014;2022-09-09T01:29:09;550.75;;;53.47;;
38581;SDS011;24349;53.720;10.014;2022-09-09T01:34:12;396.45;;;49.30;;
38581;SDS011;24349;53.720;10.014;2022-09-09T01:36:43;581.17;;;55.83;;
38581;SDS011;24349;53.720;10.014;2022-09-09T01:39:15;708.05;;;62.20;;
38581;SDS011;24349;53.720;10.014;2022-09-09T01:41:41;623.38;;;65.40;;
38581;SDS011;24349;53.720;10.014;2022-09-09T01:44:07;181.50;;;44.05;;
38581;SDS011;24349;53.720;10.014;2022-09-09T01:46:34;233.45;;;43.45;;
38581;SDS011;24349;53.720;10.014;2022-09-09T01:49:00;238.13;;;43.53;;
38581;SDS011;24349;53.720;10.014;2022-09-09T01:51:28;349.75;;;53.70;;
38581;SDS011;24349;53.720;10.014;2022-09-09T01:53:55;272.42;;;46.50;;
38581;SDS011;24349;53.720;10.014;2022-09-09T02:01:56;310.73;;;51.00;;
38581;SDS011;24349;53.720;10.014;2022-09-09T02:04:38;323.60;;;51.75;;
38581;SDS011;24349;53.720;10.014;2022-09-09T02:07:06;133.35;;;44.60;;
38581;SDS011;24349;53.720;10.014;2022-09-09T02:09:38;196.95;;;42.05;;
38581;SDS011;24349;53.720;10.014;2022-09-09T02:12:11;270.20;;;43.35;;
38581;SDS011;24349;53.720;10.014;2022-09-09T02:14:45;403.48;;;50.92;;
38581;SDS011;24349;53.720;10.014;2022-09-09T02:17:22;593.53;;;56.95;;
38581;SDS011;24349;53.720;10.014;2022-09-09T02:19:54;419.42;;;51.92;;
38581;SDS011;24349;53.720;10.014;2022-09-09T02:22:31;428.00;;;50.33;;
38581;SDS011;24349;53.720;10.014;2022-09-09T02:24:59;648.08;;;67.45;;
38581;SDS011;24349;53.720;10.014;2022-09-09T02:27:25;431.48;;;54.08;;
38581;SDS011;24349;53.720;10.014;2022-09-09T02:29:51;150.80;;;44.20;;
38581;SDS011;24349;53.720;10.014;2022-09-09T02:32:19;353.45;;;46.47;;
38581;SDS011;24349;53.720;10.014;2022-09-09T02:34:49;240.27;;;45.33;;
38581;SDS011;24349;53.720;10.014;2022-09-09T02:37:23;285.13;;;51.78;;
38581;SDS011;24349;53.720;10.014;2022-09-09T02:39:54;429.52;;;54.25;;
38581;SDS011;24349;53.720;10.014;2022-09-09T02:42:20;297.77;;;45.03;;
38581;SDS011;24349;53.720;10.014;2022-09-09T02:44:46;269.63;;;41.90;;
38581;SDS011;24349;53.720;10.014;2022-09-09T02:55:20;211.02;;;39.60;;
38581;SDS011;24349;53.720;10.014;2022-09-09T02:57:52;109.88;;;34.47;;
38581;SDS011;24349;53.720;10.014;2022-09-09T03:00:24;163.75;;;35.38;;
38581;SDS011;24349;53.720;10.014;2022-09-09T03:02:52;229.90;;;39.53;;
38581;SDS011;24349;53.720;10.014;2022-09-09T03:05:19;340.58;;;52.22;;
38581;SDS011;24349;53.720;10.014;2022-09-09T03:07:45;92.03;;;38.00;;
38581;SDS011;24349;53.720;10.014;2022-09-09T03:10:11;234.00;;;42.95;;
38581;SDS011;24349;53.720;10.014;2022-09-09T03:12:37;256.20;;;40.60;;
38581;SDS011;24349;53.720;10.014;2022-09-09T03:15:03;153.07;;;34.60;;
38581;SDS011;24349;53.720;10.014;2022-09-09T03:17:30;198.38;;;35.67;;
38581;SDS011;24349;53.720;10.014;2022-09-09T03:19:56;219.55;;;41.70;;
38581;SDS011;24349;53.720;10.014;2022-09-09T03:22:22;231.50;;;38.90;;
38581;SDS011;24349;53.720;10.014;2022-09-09T03:24:48;409.92;;;49.45;;
38581;SDS011;24349;53.720;10.014;2022-09-09T03:27:14;311.67;;;43.20;;
38581;SDS011;24349;53.720;10.014;2022-09-09T03:29:39;180.23;;;35.92;;
38581;SDS011;24349;53.720;10.014;2022-09-09T03:32:05;346.98;;;44.85;;
38581;SDS011;24349;53.720;10.014;2022-09-09T03:34:31;359.13;;;46.83;;
38581;SDS011;24349;53.720;10.014;2022-09-09T03:36:56;171.55;;;37.97;;
38581;SDS011;24349;53.720;10.014;2022-09-09T03:39:22;367.23;;;44.28;;
38581;SDS011;24349;53.720;10.014;2022-09-09T03:41:48;118.43;;;33.00;;
38581;SDS011;24349;53.720;10.014;2022-09-09T03:44:13;178.98;;;38.22;;
38581;SDS011;24349;53.720;10.014;2022-09-09T03:46:39;296.17;;;44.95;;
38581;SDS011;24349;53.720;10.014;2022-09-09T03:49:05;97.68;;;38.60;;
38581;SDS011;24349;53.720;10.014;2022-09-09T03:51:31;227.98;;;43.13;;
38581;SDS011;24349;53.720;10.014;2022-09-09T03:53:56;187.85;;;39.10;;
38581;SDS011;24349;53.720;10.014;2022-09-09T03:56:23;151.10;;;37.13;;
38581;SDS011;24349;53.720;10.014;2022-09-09T03:58:49;122.70;;;38.45;;
38581;SDS011;24349;53.720;10.014;2022-09-09T04:01:15;200.75;;;43.38;;
38581;SDS011;24349;53.720;10.014;2022-09-09T04:03:42;128.52;;;40.17;;
38581;SDS011;24349;53.720;10.014;2022-09-09T04:06:10;86.32;;;33.50;;
38581;SDS011;24349;53.720;10.014;2022-09-09T04:08:38;66.20;;;32.05;;
38581;SDS011;24349;53.720;10.014;2022-09-09T04:11:05;60.15;;;31.20;;
38581;SDS011;24349;53.720;10.014;2022-09-09T04:13:31;89.80;;;33.03;;
38581;SDS011;24349;53.720;10.014;2022-09-09T04:15:59;66.78;;;30.85;;
38581;SDS011;24349;53.720;10.014;2022-09-09T04:18:26;82.82;;;33.15;;
38581;SDS011;24349;53.720;10.014;2022-09-09T04:20:53;143.18;;;40.47;;
38581;SDS011;24349;53.720;10.014;2022-09-09T04:23:21;167.45;;;43.30;;
38581;SDS011;24349;53.720;10.014;2022-09-09T04:25:50;87.28;;;37.15;;
38581;SDS011;24349;53.720;10.014;2022-09-09T04:28:18;111.60;;;37.30;;
38581;SDS011;24349;53.720;10.014;2022-09-09T04:30:45;200.77;;;45.47;;
38581;SDS011;24349;53.720;10.014;2022-09-09T04:33:11;63.50;;;31.52;;
38581;SDS011;24349;53.720;10.014;2022-09-09T04:35:38;89.30;;;36.30;;
38581;SDS011;24349;53.720;10.014;2022-09-09T04:38:05;95.55;;;38.75;;
38581;SDS011;24349;53.720;10.014;2022-09-09T04:40:34;80.53;;;34.08;;
38581;SDS011;24349;53.720;10.014;2022-09-09T04:43:00;83.85;;;33.92;;
38581;SDS011;24349;53.720;10.014;2022-09-09T04:45:29;66.53;;;30.65;;
38581;SDS011;24349;53.720;10.014;2022-09-09T04:47:55;182.23;;;44.78;;
38581;SDS011;24349;53.720;10.014;2022-09-09T04:50:22;65.97;;;33.75;;
38581;SDS011;24349;53.720;10.014;2022-09-09T04:52:47;60.72;;;31.90;;
38581;SDS011;24349;53.720;10.014;2022-09-09T04:55:13;122.53;;;39.10;;
38581;SDS011;24349;53.720;10.014;2022-09-09T04:57:39;98.63;;;35.45;;
38581;SDS011;24349;53.720;10.014;2022-09-09T05:00:05;126.78;;;42.45;;
38581;SDS011;24349;53.720;10.014;2022-09-09T05:02:32;71.13;;;31.33;;
38581;SDS011;24349;53.720;10.014;2022-09-09T05:04:57;76.90;;;34.15;;
38581;SDS011;24349;53.720;10.014;2022-09-09T05:07:23;72.63;;;30.98;;
38581;SDS011;24349;53.720;10.014;2022-09-09T05:09:51;67.63;;;34.10;;
38581;SDS011;24349;53.720;10.014;2022-09-09T05:12:16;83.72;;;36.05;;
38581;SDS011;24349;53.720;10.014;2022-09-09T05:14:43;76.43;;;36.15;;
38581;SDS011;24349;53.720;10.014;2022-09-09T05:17:09;53.72;;;29.10;;
38581;SDS011;24349;53.720;10.014;2022-09-09T05:19:35;59.45;;;33.95;;
38581;SDS011;24349;53.720;10.014;2022-09-09T05:22:01;50.63;;;28.17;;
38581;SDS011;24349;53.720;10.014;2022-09-09T05:24:27;39.58;;;24.67;;
38581;SDS011;24349;53.720;10.014;2022-09-09T05:26:52;76.60;;;35.92;;
38581;SDS011;24349;53.720;10.014;2022-09-09T05:29:18;49.22;;;31.02;;
38581;SDS011;24349;53.720;10.014;2022-09-09T05:31:44;41.33;;;26.13;;
38581;SDS011;24349;53.720;10.014;2022-09-09T05:34:10;45.10;;;25.65;;
38581;SDS011;24349;53.720;10.014;2022-09-09T05:36:36;42.10;;;26.75;;
38581;SDS011;24349;53.720;10.014;2022-09-09T05:39:02;44.88;;;27.77;;
38581;SDS011;24349;53.720;10.014;2022-09-09T05:41:28;37.85;;;26.90;;
38581;SDS011;24349;53.720;10.014;2022-09-09T05:43:54;30.38;;;19.58;;
38581;SDS011;24349;53.720;10.014;2022-09-09T05:46:21;35.05;;;24.92;;
38581;SDS011;24349;53.720;10.014;2022-09-09T05:48:49;44.90;;;29.05;;
38581;SDS011;24349;53.720;10.014;2022-09-09T05:51:23;44.75;;;26.88;;
38581;SDS011;24349;53.720;10.014;2022-09-09T05:53:51;33.85;;;22.98;;
38581;SDS011;24349;53.720;10.014;2022-09-09T05:56:21;40.15;;;26.33;;
38581;SDS011;24349;53.720;10.014;2022-09-09T05:58:50;33.53;;;22.30;;
38581;SDS011;24349;53.720;10.014;2022-09-09T06:01:19;26.00;;;18.25;;
38581;SDS011;24349;53.720;10.014;2022-09-09T06:03:56;25.55;;;16.45;;
38581;SDS011;24349;53.720;10.014;2022-09-09T06:06:23;27.90;;;18.38;;
38581;SDS011;24349;53.720;10.014;2022-09-09T06:08:51;31.52;;;22.98;;
38581;SDS011;24349;53.720;10.014;2022-09-09T06:11:20;25.92;;;18.63;;
38581;SDS011;24349;53.720;10.014;2022-09-09T06:13:47;41.13;;;25.23;;
38581;SDS011;24349;53.720;10.014;2022-09-09T06:16:17;26.30;;;17.90;;
38581;SDS011;24349;53.720;10.014;2022-09-09T06:18:44;25.45;;;18.27;;
38581;SDS011;24349;53.720;10.014;2022-09-09T06:21:23;38.08;;;23.85;;
38581;SDS011;24349;53.720;10.014;2022-09-09T06:23:54;29.58;;;19.45;;
38581;SDS011;24349;53.720;10.014;2022-09-09T06:26:21;25.52;;;18.55;;
38581;SDS011;24349;53.720;10.014;2022-09-09T06:28:51;24.25;;;17.17;;
38581;SDS011;24349;53.720;10.014;2022-09-09T06:31:22;22.17;;;17.92;;
38581;SDS011;24349;53.720;10.014;2022-09-09T06:33:50;25.95;;;19.25;;
38581;SDS011;24349;53.720;10.014;2022-09-09T06:36:30;22.55;;;17.30;;
38581;SDS011;24349;53.720;10.014;2022-09-09T06:38:59;20.77;;;14.90;;
38581;SDS011;24349;53.720;10.014;2022-09-09T06:41:26;20.33;;;16.52;;
38581;SDS011;24349;53.720;10.014;2022-09-09T06:43:53;26.13;;;18.63;;
38581;SDS011;24349;53.720;10.014;2022-09-09T06:46:24;23.85;;;17.25;;
38581;SDS011;24349;53.720;10.014;2022-09-09T06:48:56;22.27;;;17.33;;
38581;SDS011;24349;53.720;10.014;2022-09-09T06:51:24;18.77;;;14.98;;
38581;SDS011;24349;53.720;10.014;2022-09-09T06:53:55;19.83;;;14.02;;
38581;SDS011;24349;53.720;10.014;2022-09-09T06:56:26;25.58;;;20.00;;
38581;SDS011;24349;53.720;10.014;2022-09-09T06:58:53;18.95;;;15.82;;
38581;SDS011;24349;53.720;10.014;2022-09-09T07:01:21;21.48;;;12.98;;
38581;SDS011;24349;53.720;10.014;2022-09-09T07:03:49;20.25;;;15.60;;
38581;SDS011;24349;53.720;10.014;2022-09-09T07:06:23;21.58;;;17.08;;
38581;SDS011;24349;53.720;10.014;2022-09-09T07:08:54;19.50;;;15.20;;
38581;SDS011;24349;53.720;10.014;2022-09-09T07:11:23;17.13;;;14.43;;
38581;SDS011;24349;53.720;10.014;2022-09-09T07:13:54;16.85;;;13.27;;
38581;SDS011;24349;53.720;10.014;2022-09-09T07:16:22;13.07;;;10.32;;
38581;SDS011;24349;53.720;10.014;2022-09-09T07:18:53;10.25;;;8.45;;
38581;SDS011;24349;53.720;10.014;2022-09-09T07:21:26;13.27;;;9.73;;
38581;SDS011;24349;53.720;10.014;2022-09-09T07:23:54;13.40;;;11.02;;
38581;SDS011;24349;53.720;10.014;2022-09-09T07:26:21;11.88;;;9.18;;
38581;SDS011;24349;53.720;10.014;2022-09-09T07:28:48;11.88;;;8.82;;
38581;SDS011;24349;53.720;10.014;2022-09-09T07:31:18;12.98;;;10.25;;
38581;SDS011;24349;53.720;10.014;2022-09-09T07:33:45;13.98;;;8.75;;
38581;SDS011;24349;53.720;10.014;2022-09-09T07:36:13;12.23;;;9.15;;
38581;SDS011;24349;53.720;10.014;2022-09-09T07:38:46;11.27;;;9.02;;
38581;SDS011;24349;53.720;10.014;2022-09-09T07:41:27;11.95;;;7.72;;
38581;SDS011;24349;53.720;10.014;2022-09-09T07:44:04;11.88;;;6.93;;
38581;SDS011;24349;53.720;10.014;2022-09-09T07:46:31;10.40;;;8.00;;
38581;SDS011;24349;53.720;10.014;2022-09-09T07:48:57;11.32;;;7.28;;
38581;SDS011;24349;53.720;10.014;2022-09-09T07:51:27;12.40;;;6.80;;
38581;SDS011;24349;53.720;10.014;2022-09-09T07:53:55;9.55;;;6.80;;
38581;SDS011;24349;53.720;10.014;2022-09-09T07:56:23;8.05;;;5.57;;
38581;SDS011;24349;53.720;10.014;2022-09-09T07:58:51;10.65;;;6.68;;
38581;SDS011;24349;53.720;10.014;2022-09-09T08:01:22;9.48;;;5.93;;
38581;SDS011;24349;53.720;10.014;2022-09-09T08:03:54;9.13;;;5.15;;
38581;SDS011;24349;53.720;10.014;2022-09-09T08:06:26;9.52;;;5.47;;
38581;SDS011;24349;53.720;10.014;2022-09-09T08:08:53;8.98;;;5.90;;
38581;SDS011;24349;53.720;10.014;2022-09-09T08:11:20;10.07;;;5.35;;
38581;SDS011;24349;53.720;10.014;2022-09-09T08:13:47;9.82;;;5.85;;
38581;SDS011;24349;53.720;10.014;2022-09-09T08:16:15;8.40;;;4.90;;
38581;SDS011;24349;53.720;10.014;2022-09-09T08:18:42;9.30;;;4.90;;
38581;SDS011;24349;53.720;10.014;2022-09-09T08:23:43;8.88;;;4.70;;
38581;SDS011;24349;53.720;10.014;2022-09-09T08:26:17;10.13;;;5.00;;
38581;SDS011;24349;53.720;10.014;2022-09-09T08:28:51;7.05;;;4.32;;
38581;SDS011;24349;53.720;10.014;2022-09-09T08:31:22;7.22;;;4.72;;
38581;SDS011;24349;53.720;10.014;2022-09-09T08:33:49;7.63;;;4.10;;
38581;SDS011;24349;53.720;10.014;2022-09-09T08:36:22;6.80;;;3.72;;
38581;SDS011;24349;53.720;10.014;2022-09-09T08:38:51;6.35;;;3.63;;
38581;SDS011;24349;53.720;10.014;2022-09-09T08:49:30;6.13;;;3.17;;
38581;SDS011;24349;53.720;10.014;2022-09-09T08:52:18;8.02;;;4.10;;
38581;SDS011;24349;53.720;10.014;2022-09-09T08:54:52;6.27;;;3.70;;
38581;SDS011;24349;53.720;10.014;2022-09-09T08:57:23;5.38;;;3.10;;
38581;SDS011;24349;53.720;10.014;2022-09-09T08:59:51;7.38;;;3.00;;
38581;SDS011;24349;53.720;10.014;2022-09-09T09:02:38;7.35;;;3.67;;
38581;SDS011;24349;53.720;10.014;2022-09-09T09:11:03;5.72;;;3.20;;
38581;SDS011;24349;53.720;10.014;2022-09-09T09:13:34;5.30;;;2.50;;
38581;SDS011;24349;53.720;10.014;2022-09-09T09:16:06;5.68;;;2.53;;
38581;SDS011;24349;53.720;10.014;2022-09-09T09:18:51;10.02;;;2.65;;
38581;SDS011;24349;53.720;10.014;2022-09-09T09:21:20;5.03;;;2.85;;
38581;SDS011;24349;53.720;10.014;2022-09-09T09:23:56;8.85;;;2.90;;
38581;SDS011;24349;53.720;10.014;2022-09-09T09:26:56;6.18;;;2.80;;
38581;SDS011;24349;53.720;10.014;2022-09-09T09:29:18;7.53;;;2.50;;
38581;SDS011;24349;53.720;10.014;2022-09-09T09:31:56;5.93;;;2.10;;
38581;SDS011;24349;53.720;10.014;2022-09-09T09:34:26;5.53;;;2.03;;
38581;SDS011;24349;53.720;10.014;2022-09-09T09:36:57;5.40;;;1.95;;
38581;SDS011;24349;53.720;10.014;2022-09-09T09:39:30;5.22;;;1.88;;
38581;SDS011;24349;53.720;10.014;2022-09-09T09:42:12;5.00;;;1.88;;
38581;SDS011;24349;53.720;10.014;2022-09-09T09:44:39;6.68;;;1.95;;
38581;SDS011;24349;53.720;10.014;2022-09-09T09:47:07;6.53;;;1.83;;
38581;SDS011;24349;53.720;10.014;2022-09-09T09:49:34;5.68;;;1.70;;
38581;SDS011;24349;53.720;10.014;2022-09-09T09:52:00;4.97;;;1.70;;
38581;SDS011;24349;53.720;10.014;2022-09-09T09:54:28;6.60;;;1.58;;
38581;SDS011;24349;53.720;10.014;2022-09-09T09:59:37;4.72;;;1.70;;
38581;SDS011;24349;53.720;10.014;2022-09-09T10:21:29;3.67;;;1.50;;
38581;SDS011;24349;53.720;10.014;2022-09-09T10:24:15;6.97;;;2.00;;
38581;SDS011;24349;53.720;10.014;2022-09-09T10:32:41;5.47;;;2.10;;
38581;SDS011;24349;53.720;10.014;2022-09-09T10:38:10;4.97;;;2.55;;
38581;SDS011;24349;53.720;10.014;2022-09-09T10:40:50;6.15;;;3.20;;
38581;SDS011;24349;53.720;10.014;2022-09-09T10:46:17;5.15;;;2.40;;
38581;SDS011;24349;53.720;10.014;2022-09-09T10:56:34;5.10;;;1.85;;
38581;SDS011;24349;53.720;10.014;2022-09-09T10:59:12;7.18;;;2.20;;
38581;SDS011;24349;53.720;10.014;2022-09-09T11:02:00;7.53;;;2.10;;
38581;SDS011;24349;53.720;10.014;2022-09-09T11:04:41;4.93;;;1.88;;
38581;SDS011;24349;53.720;10.014;2022-09-09T11:07:16;4.20;;;1.63;;
38581;SDS011;24349;53.720;10.014;2022-09-09T11:10:21;4.43;;;1.50;;
38581;SDS011;24349;53.720;10.014;2022-09-09T11:12:54;4.28;;;1.55;;
38581;SDS011;24349;53.720;10.014;2022-09-09T11:15:28;4.88;;;1.30;;
38581;SDS011;24349;53.720;10.014;2022-09-09T11:18:09;4.60;;;1.85;;
38581;SDS011;24349;53.720;10.014;2022-09-09T11:20:40;4.30;;;1.50;;
38581;SDS011;24349;53.720;10.014;2022-09-09T11:23:12;3.88;;;1.30;;
38581;SDS011;24349;53.720;10.014;2022-09-09T11:25:56;5.53;;;1.58;;
38581;SDS011;24349;53.720;10.014;2022-09-09T11:36:48;3.97;;;1.40;;
38581;SDS011;24349;53.720;10.014;2022-09-09T11:42:23;5.25;;;1.48;;
38581;SDS011;24349;53.720;10.014;2022-09-09T11:44:49;4.50;;;1.50;;
38581;SDS011;24349;53.720;10.014;2022-09-09T11:47:20;6.10;;;1.50;;
38581;SDS011;24349;53.720;10.014;2022-09-09T11:49:54;4.30;;;1.67;;
38581;SDS011;24349;53.720;10.014;2022-09-09T11:52:39;4.38;;;1.60;;
38581;SDS011;24349;53.720;10.014;2022-09-09T12:03:02;5.18;;;1.63;;
38581;SDS011;24349;53.720;10.014;2022-09-09T12:06:07;4.88;;;1.60;;
38581;SDS011;24349;53.720;10.014;2022-09-09T12:08:25;3.92;;;1.45;;
38581;SDS011;24349;53.720;10.014;2022-09-09T12:10:54;3.72;;;1.50;;
38581;SDS011;24349;53.720;10.014;2022-09-09T12:13:22;5.85;;;1.98;;
38581;SDS011;24349;53.720;10.014;2022-09-09T12:15:54;4.45;;;1.48;;
38581;SDS011;24349;53.720;10.014;2022-09-09T12:18:25;7.47;;;1.90;;
38581;SDS011;24349;53.720;10.014;2022-09-09T12:23:50;4.38;;;1.40;;
38581;SDS011;24349;53.720;10.014;2022-09-09T12:34:16;5.30;;;1.77;;
38581;SDS011;24349;53.720;10.014;2022-09-09T12:37:04;6.50;;;1.83;;
38581;SDS011;24349;53.720;10.014;2022-09-09T12:40:01;5.03;;;1.70;;
38581;SDS011;24349;53.720;10.014;2022-09-09T12:42:27;6.10;;;1.77;;
38581;SDS011;24349;53.720;10.014;2022-09-09T12:44:57;5.13;;;1.70;;
38581;SDS011;24349;53.720;10.014;2022-09-09T12:47:26;6.28;;;1.67;;
38581;SDS011;24349;53.720;10.014;2022-09-09T12:50:14;5.63;;;1.65;;
38581;SDS011;24349;53.720;10.014;2022-09-09T12:52:42;4.90;;;1.88;;
38581;SDS011;24349;53.720;10.014;2022-09-09T12:55:15;5.43;;;1.80;;
38581;SDS011;24349;53.720;10.014;2022-09-09T12:57:43;6.00;;;1.80;;
38581;SDS011;24349;53.720;10.014;2022-09-09T13:00:14;4.13;;;1.75;;
38581;SDS011;24349;53.720;10.014;2022-09-09T13:02:45;4.43;;;1.52;;
38581;SDS011;24349;53.720;10.014;2022-09-09T13:05:14;6.77;;;1.53;;
38581;SDS011;24349;53.720;10.014;2022-09-09T13:07:42;5.38;;;1.70;;
38581;SDS011;24349;53.720;10.014;2022-09-09T13:10:10;4.85;;;1.90;;
38581;SDS011;24349;53.720;10.014;2022-09-09T13:12:37;5.53;;;1.80;;
38581;SDS011;24349;53.720;10.014;2022-09-09T13:15:04;5.93;;;1.70;;
38581;SDS011;24349;53.720;10.014;2022-09-09T13:17:34;4.20;;;1.58;;
38581;SDS011;24349;53.720;10.014;2022-09-09T13:20:00;4.68;;;2.03;;
38581;SDS011;24349;53.720;10.014;2022-09-09T13:22:31;6.07;;;2.03;;
38581;SDS011;24349;53.720;10.014;2022-09-09T13:25:05;5.97;;;2.38;;
38581;SDS011;24349;53.720;10.014;2022-09-09T13:27:51;7.03;;;2.15;;
38581;SDS011;24349;53.720;10.014;2022-09-09T13:30:25;6.32;;;1.90;;
38581;SDS011;24349;53.720;10.014;2022-09-09T13:35:58;10.48;;;3.35;;
38581;SDS011;24349;53.720;10.014;2022-09-09T13:38:31;6.55;;;2.38;;
38581;SDS011;24349;53.720;10.014;2022-09-09T13:41:01;7.32;;;2.95;;
38581;SDS011;24349;53.720;10.014;2022-09-09T13:43:42;8.57;;;2.90;;
38581;SDS011;24349;53.720;10.014;2022-09-09T13:51:44;6.03;;;3.30;;
38581;SDS011;24349;53.720;10.014;2022-09-09T13:54:13;8.82;;;3.95;;
38581;SDS011;24349;53.720;10.014;2022-09-09T13:56:41;6.90;;;4.10;;
38581;SDS011;24349;53.720;10.014;2022-09-09T13:59:12;9.70;;;4.40;;
38581;SDS011;24349;53.720;10.014;2022-09-09T14:01:39;10.20;;;5.07;;
38581;SDS011;24349;53.720;10.014;2022-09-09T14:04:06;8.13;;;3.83;;
38581;SDS011;24349;53.720;10.014;2022-09-09T14:06:33;9.25;;;4.80;;
38581;SDS011;24349;53.720;10.014;2022-09-09T14:09:02;7.88;;;5.00;;
38581;SDS011;24349;53.720;10.014;2022-09-09T14:11:28;9.18;;;4.55;;
38581;SDS011;24349;53.720;10.014;2022-09-09T14:13:53;9.15;;;4.50;;
38581;SDS011;24349;53.720;10.014;2022-09-09T14:16:19;8.05;;;5.20;;
38581;SDS011;24349;53.720;10.014;2022-09-09T14:18:46;7.78;;;4.53;;
38581;SDS011;24349;53.720;10.014;2022-09-09T14:21:12;10.27;;;5.35;;
38581;SDS011;24349;53.720;10.014;2022-09-09T14:23:39;9.57;;;5.40;;
38581;SDS011;24349;53.720;10.014;2022-09-09T14:26:05;8.18;;;4.10;;
38581;SDS011;24349;53.720;10.014;2022-09-09T14:28:31;7.93;;;4.28;;
38581;SDS011;24349;53.720;10.014;2022-09-09T14:31:01;8.82;;;5.05;;
38581;SDS011;24349;53.720;10.014;2022-09-09T14:33:28;10.80;;;4.82;;
38581;SDS011;24349;53.720;10.014;2022-09-09T14:35:56;8.75;;;4.78;;
38581;SDS011;24349;53.720;10.014;2022-09-09T14:38:22;10.13;;;5.80;;
38581;SDS011;24349;53.720;10.014;2022-09-09T14:40:48;7.85;;;4.63;;
38581;SDS011;24349;53.720;10.014;2022-09-09T14:43:13;7.55;;;4.68;;
38581;SDS011;24349;53.720;10.014;2022-09-09T14:45:39;9.55;;;4.40;;
38581;SDS011;24349;53.720;10.014;2022-09-09T14:48:05;9.23;;;5.30;;
38581;SDS011;24349;53.720;10.014;2022-09-09T14:50:31;7.75;;;3.50;;
38581;SDS011;24349;53.720;10.014;2022-09-09T14:52:56;7.60;;;3.90;;
38581;SDS011;24349;53.720;10.014;2022-09-09T14:55:22;5.65;;;2.72;;
38581;SDS011;24349;53.720;10.014;2022-09-09T14:57:48;7.90;;;3.72;;
38581;SDS011;24349;53.720;10.014;2022-09-09T15:00:14;7.13;;;3.30;;
38581;SDS011;24349;53.720;10.014;2022-09-09T15:02:41;7.18;;;2.97;;
38581;SDS011;24349;53.720;10.014;2022-09-09T15:05:07;8.13;;;3.40;;
38581;SDS011;24349;53.720;10.014;2022-09-09T15:07:33;6.85;;;3.60;;
38581;SDS011;24349;53.720;10.014;2022-09-09T15:09:59;7.55;;;3.70;;
38581;SDS011;24349;53.720;10.014;2022-09-09T15:12:24;6.68;;;2.97;;
38581;SDS011;24349;53.720;10.014;2022-09-09T15:14:50;6.57;;;3.58;;
38581;SDS011;24349;53.720;10.014;2022-09-09T15:17:16;6.40;;;3.30;;
38581;SDS011;24349;53.720;10.014;2022-09-09T15:19:41;8.18;;;3.90;;
38581;SDS011;24349;53.720;10.014;2022-09-09T15:22:08;7.53;;;4.03;;
38581;SDS011;24349;53.720;10.014;2022-09-09T15:24:34;8.00;;;4.25;;
38581;SDS011;24349;53.720;10.014;2022-09-09T15:27:00;6.95;;;3.78;;
38581;SDS011;24349;53.720;10.014;2022-09-09T15:29:26;6.55;;;2.85;;
38581;SDS011;24349;53.720;10.014;2022-09-09T15:31:53;6.32;;;3.17;;
38581;SDS011;24349;53.720;10.014;2022-09-09T15:34:20;7.47;;;3.92;;
38581;SDS011;24349;53.720;10.014;2022-09-09T15:36:46;5.13;;;3.47;;
38581;SDS011;24349;53.720;10.014;2022-09-09T15:39:13;8.02;;;3.40;;
38581;SDS011;24349;53.720;10.014;2022-09-09T15:41:41;6.53;;;3.45;;
38581;SDS011;24349;53.720;10.014;2022-09-09T15:44:08;6.30;;;2.70;;
38581;SDS011;24349;53.720;10.014;2022-09-09T15:46:44;5.47;;;2.63;;
38581;SDS011;24349;53.720;10.014;2022-09-09T15:49:15;5.72;;;2.40;;
38581;SDS011;24349;53.720;10.014;2022-09-09T15:51:43;5.90;;;2.38;;
38581;SDS011;24349;53.720;10.014;2022-09-09T15:54:12;6.07;;;2.53;;
38581;SDS011;24349;53.720;10.014;2022-09-09T15:56:42;4.40;;;2.00;;
38581;SDS011;24349;53.720;10.014;2022-09-09T15:59:08;4.20;;;1.90;;
38581;SDS011;24349;53.720;10.014;2022-09-09T16:01:34;4.78;;;1.98;;
38581;SDS011;24349;53.720;10.014;2022-09-09T16:04:00;8.02;;;2.45;;
38581;SDS011;24349;53.720;10.014;2022-09-09T16:06:27;5.95;;;2.13;;
38581;SDS011;24349;53.720;10.014;2022-09-09T16:08:54;4.80;;;1.80;;
38581;SDS011;24349;53.720;10.014;2022-09-09T16:13:49;4.78;;;1.70;;
38581;SDS011;24349;53.720;10.014;2022-09-09T16:16:17;4.50;;;1.67;;
38581;SDS011;24349;53.720;10.014;2022-09-09T16:18:47;4.38;;;1.60;;
38581;SDS011;24349;53.720;10.014;2022-09-09T16:21:15;4.35;;;1.80;;
38581;SDS011;24349;53.720;10.014;2022-09-09T16:23:50;4.22;;;1.75;;
38581;SDS011;24349;53.720;10.014;2022-09-09T16:26:18;4.45;;;1.75;;
38581;SDS011;24349;53.720;10.014;2022-09-09T16:28:44;6.72;;;1.80;;
38581;SDS011;24349;53.720;10.014;2022-09-09T16:31:13;6.43;;;1.85;;
38581;SDS011;24349;53.720;10.014;2022-09-09T16:33:40;7.10;;;2.20;;
38581;SDS011;24349;53.720;10.014;2022-09-09T16:36:07;4.00;;;1.90;;
38581;SDS011;24349;53.720;10.014;2022-09-09T16:38:35;6.35;;;1.70;;
38581;SDS011;24349;53.720;10.014;2022-09-09T16:41:01;5.22;;;2.10;;
38581;SDS011;24349;53.720;10.014;2022-09-09T16:43:30;6.75;;;2.40;;
38581;SDS011;24349;53.720;10.014;2022-09-09T16:45:55;5.32;;;2.00;;
38581;SDS011;24349;53.720;10.014;2022-09-09T16:48:21;5.57;;;1.88;;
38581;SDS011;24349;53.720;10.014;2022-09-09T16:50:47;5.78;;;2.10;;
38581;SDS011;24349;53.720;10.014;2022-09-09T16:53:13;4.65;;;2.10;;
38581;SDS011;24349;53.720;10.014;2022-09-09T16:55:40;5.95;;;2.20;;
38581;SDS011;24349;53.720;10.014;2022-09-09T16:58:12;7.05;;;2.10;;
38581;SDS011;24349;53.720;10.014;2022-09-09T17:00:38;3.95;;;1.98;;
38581;SDS011;24349;53.720;10.014;2022-09-09T17:03:03;4.75;;;1.90;;